sensor_id;sensor_type;location;lat;lon;timestamp;P1;durP1;ratioP1;P2;durP2;ratioP2
63217;SDS011;49314;48.278;16.378;2023-07-13T00:00:17;3.30;;;3.00;;
63217;SDS011;49314;48.278;16.378;2023-07-13T00:02:42;5.53;;;5.03;;
63217;SDS011;49314;48.278;16.378;2023-07-13T00:05:08;4.03;;;3.83;;
63217;SDS011;49314;48.278;16.378;2023-07-13T00:07:33;3.60;;;3.40;;
63217;SDS011;49314;48.278;16.378;2023-07-13T00:09:59;3.47;;;3.28;;
63217;SDS011;49314;48.278;16.378;2023-07-13T00:12:28;3.85;;;3.65;;
63217;SDS011;49314;48.278;16.378;2023-07-13T00:14:55;4.57;;;4.28;;
63217;SDS011;49314;48.278;16.378;2023-07-13T00:17:20;4.13;;;3.75;;
63217;SDS011;49314;48.278;16.378;2023-07-13T00:19:46;4.50;;;4.10;;
63217;SDS011;49314;48.278;16.378;2023-07-13T00:22:11;4.70;;;4.40;;
63217;SDS011;49314;48.278;16.378;2023-07-13T00:24:36;3.70;;;3.50;;
63217;SDS011;49314;48.278;16.378;2023-07-13T00:27:06;3.88;;;3.55;;
63217;SDS011;49314;48.278;16.378;2023-07-13T00:29:31;2.88;;;2.67;;
63217;SDS011;49314;48.278;16.378;2023-07-13T00:31:58;3.10;;;2.95;;
63217;SDS011;49314;48.278;16.378;2023-07-13T00:34:24;3.33;;;3.05;;
63217;SDS011;49314;48.278;16.378;2023-07-13T00:36:49;4.10;;;3.78;;
63217;SDS011;49314;48.278;16.378;2023-07-13T00:39:14;5.67;;;4.33;;
63217;SDS011;49314;48.278;16.378;2023-07-13T00:41:39;3.50;;;3.30;;
63217;SDS011;49314;48.278;16.378;2023-07-13T00:44:05;4.32;;;3.67;;
63217;SDS011;49314;48.278;16.378;2023-07-13T00:46:31;3.77;;;3.47;;
63217;SDS011;49314;48.278;16.378;2023-07-13T00:49:01;3.80;;;3.47;;
63217;SDS011;49314;48.278;16.378;2023-07-13T00:51:28;3.72;;;3.45;;
63217;SDS011;49314;48.278;16.378;2023-07-13T00:53:56;3.17;;;2.97;;
63217;SDS011;49314;48.278;16.378;2023-07-13T00:56:23;5.00;;;4.70;;
63217;SDS011;49314;48.278;16.378;2023-07-13T00:58:48;3.90;;;3.67;;
63217;SDS011;49314;48.278;16.378;2023-07-13T01:01:15;4.25;;;3.80;;
63217;SDS011;49314;48.278;16.378;2023-07-13T01:03:40;3.45;;;3.25;;
63217;SDS011;49314;48.278;16.378;2023-07-13T01:06:06;3.83;;;3.30;;
63217;SDS011;49314;48.278;16.378;2023-07-13T01:08:31;3.97;;;3.72;;
63217;SDS011;49314;48.278;16.378;2023-07-13T01:10:57;3.53;;;3.33;;
63217;SDS011;49314;48.278;16.378;2023-07-13T01:13:23;3.25;;;3.05;;
63217;SDS011;49314;48.278;16.378;2023-07-13T01:15:49;4.38;;;4.18;;
63217;SDS011;49314;48.278;16.378;2023-07-13T01:18:20;3.88;;;3.60;;
63217;SDS011;49314;48.278;16.378;2023-07-13T01:21:04;3.45;;;3.25;;
63217;SDS011;49314;48.278;16.378;2023-07-13T01:23:30;3.35;;;3.15;;
63217;SDS011;49314;48.278;16.378;2023-07-13T01:25:56;4.10;;;3.80;;
63217;SDS011;49314;48.278;16.378;2023-07-13T01:28:22;4.32;;;4.10;;
63217;SDS011;49314;48.278;16.378;2023-07-13T01:30:47;4.32;;;4.13;;
63217;SDS011;49314;48.278;16.378;2023-07-13T01:33:16;4.32;;;4.13;;
63217;SDS011;49314;48.278;16.378;2023-07-13T01:35:42;4.45;;;4.20;;
63217;SDS011;49314;48.278;16.378;2023-07-13T01:38:08;5.50;;;5.20;;
63217;SDS011;49314;48.278;16.378;2023-07-13T01:40:34;5.15;;;4.47;;
63217;SDS011;49314;48.278;16.378;2023-07-13T01:43:00;4.22;;;4.03;;
63217;SDS011;49314;48.278;16.378;2023-07-13T01:45:25;5.43;;;5.10;;
63217;SDS011;49314;48.278;16.378;2023-07-13T01:47:50;3.57;;;3.27;;
63217;SDS011;49314;48.278;16.378;2023-07-13T01:50:15;5.13;;;4.82;;
63217;SDS011;49314;48.278;16.378;2023-07-13T01:52:41;5.25;;;4.90;;
63217;SDS011;49314;48.278;16.378;2023-07-13T01:55:06;5.70;;;5.33;;
63217;SDS011;49314;48.278;16.378;2023-07-13T01:57:32;5.07;;;4.85;;
63217;SDS011;49314;48.278;16.378;2023-07-13T01:59:57;5.13;;;4.93;;
63217;SDS011;49314;48.278;16.378;2023-07-13T02:02:22;4.70;;;4.40;;
63217;SDS011;49314;48.278;16.378;2023-07-13T02:04:47;5.18;;;4.88;;
63217;SDS011;49314;48.278;16.378;2023-07-13T02:07:13;4.40;;;4.20;;
63217;SDS011;49314;48.278;16.378;2023-07-13T02:09:38;4.97;;;4.60;;
63217;SDS011;49314;48.278;16.378;2023-07-13T02:12:03;5.07;;;4.73;;
63217;SDS011;49314;48.278;16.378;2023-07-13T02:14:28;3.97;;;3.70;;
63217;SDS011;49314;48.278;16.378;2023-07-13T02:16:54;3.70;;;3.37;;
63217;SDS011;49314;48.278;16.378;2023-07-13T02:19:19;3.20;;;2.90;;
63217;SDS011;49314;48.278;16.378;2023-07-13T02:21:44;4.72;;;4.47;;
63217;SDS011;49314;48.278;16.378;2023-07-13T02:24:09;4.40;;;4.10;;
63217;SDS011;49314;48.278;16.378;2023-07-13T02:26:40;3.72;;;3.42;;
63217;SDS011;49314;48.278;16.378;2023-07-13T02:29:05;3.20;;;3.00;;
63217;SDS011;49314;48.278;16.378;2023-07-13T02:31:30;3.73;;;3.53;;
63217;SDS011;49314;48.278;16.378;2023-07-13T02:33:55;3.90;;;3.03;;
63217;SDS011;49314;48.278;16.378;2023-07-13T02:36:20;4.27;;;3.97;;
63217;SDS011;49314;48.278;16.378;2023-07-13T02:38:46;6.80;;;4.93;;
63217;SDS011;49314;48.278;16.378;2023-07-13T02:41:11;3.70;;;3.50;;
63217;SDS011;49314;48.278;16.378;2023-07-13T02:43:37;3.70;;;3.50;;
63217;SDS011;49314;48.278;16.378;2023-07-13T02:46:02;3.50;;;3.30;;
63217;SDS011;49314;48.278;16.378;2023-07-13T02:48:34;4.18;;;3.88;;
63217;SDS011;49314;48.278;16.378;2023-07-13T02:50:59;4.60;;;4.28;;
63217;SDS011;49314;48.278;16.378;2023-07-13T02:53:25;3.58;;;3.28;;
63217;SDS011;49314;48.278;16.378;2023-07-13T02:55:50;3.90;;;3.15;;
63217;SDS011;49314;48.278;16.378;2023-07-13T02:58:15;7.47;;;4.55;;
63217;SDS011;49314;48.278;16.378;2023-07-13T03:00:42;3.50;;;3.30;;
63217;SDS011;49314;48.278;16.378;2023-07-13T03:03:07;5.03;;;4.65;;
63217;SDS011;49314;48.278;16.378;2023-07-13T03:05:32;5.27;;;3.50;;
63217;SDS011;49314;48.278;16.378;2023-07-13T03:07:58;5.67;;;5.23;;
63217;SDS011;49314;48.278;16.378;2023-07-13T03:10:23;4.67;;;4.37;;
63217;SDS011;49314;48.278;16.378;2023-07-13T03:12:48;4.53;;;4.23;;
63217;SDS011;49314;48.278;16.378;2023-07-13T03:15:13;5.60;;;5.23;;
63217;SDS011;49314;48.278;16.378;2023-07-13T03:17:38;5.10;;;4.70;;
63217;SDS011;49314;48.278;16.378;2023-07-13T03:20:04;5.03;;;4.53;;
63217;SDS011;49314;48.278;16.378;2023-07-13T03:22:29;4.80;;;4.60;;
63217;SDS011;49314;48.278;16.378;2023-07-13T03:24:55;6.10;;;5.00;;
63217;SDS011;49314;48.278;16.378;2023-07-13T03:27:20;4.60;;;4.40;;
63217;SDS011;49314;48.278;16.378;2023-07-13T03:29:45;4.60;;;4.40;;
63217;SDS011;49314;48.278;16.378;2023-07-13T03:32:10;5.30;;;5.00;;
63217;SDS011;49314;48.278;16.378;2023-07-13T03:34:36;5.18;;;4.82;;
63217;SDS011;49314;48.278;16.378;2023-07-13T03:37:01;6.20;;;5.90;;
63217;SDS011;49314;48.278;16.378;2023-07-13T03:39:26;5.37;;;4.60;;
63217;SDS011;49314;48.278;16.378;2023-07-13T03:41:51;4.78;;;4.40;;
63217;SDS011;49314;48.278;16.378;2023-07-13T03:44:17;5.35;;;4.95;;
63217;SDS011;49314;48.278;16.378;2023-07-13T03:46:43;5.85;;;5.55;;
63217;SDS011;49314;48.278;16.378;2023-07-13T03:49:08;5.32;;;4.93;;
63217;SDS011;49314;48.278;16.378;2023-07-13T03:51:34;4.70;;;4.40;;
63217;SDS011;49314;48.278;16.378;2023-07-13T03:53:59;4.70;;;4.47;;
63217;SDS011;49314;48.278;16.378;2023-07-13T03:56:24;6.50;;;6.10;;
63217;SDS011;49314;48.278;16.378;2023-07-13T03:58:50;5.70;;;5.40;;
63217;SDS011;49314;48.278;16.378;2023-07-13T04:01:16;6.90;;;6.60;;
63217;SDS011;49314;48.278;16.378;2023-07-13T04:03:42;6.20;;;5.78;;
63217;SDS011;49314;48.278;16.378;2023-07-13T04:06:08;5.18;;;4.78;;
63217;SDS011;49314;48.278;16.378;2023-07-13T04:08:36;5.50;;;5.20;;
63217;SDS011;49314;48.278;16.378;2023-07-13T04:11:02;5.97;;;5.68;;
63217;SDS011;49314;48.278;16.378;2023-07-13T04:13:28;5.35;;;4.93;;
63217;SDS011;49314;48.278;16.378;2023-07-13T04:15:53;6.32;;;5.88;;
63217;SDS011;49314;48.278;16.378;2023-07-13T04:18:19;6.57;;;6.18;;
63217;SDS011;49314;48.278;16.378;2023-07-13T04:20:45;6.20;;;5.80;;
63217;SDS011;49314;48.278;16.378;2023-07-13T04:23:10;5.53;;;5.20;;
63217;SDS011;49314;48.278;16.378;2023-07-13T04:25:36;6.00;;;5.70;;
63217;SDS011;49314;48.278;16.378;2023-07-13T04:28:02;5.57;;;5.28;;
63217;SDS011;49314;48.278;16.378;2023-07-13T04:30:28;5.07;;;4.68;;
63217;SDS011;49314;48.278;16.378;2023-07-13T04:32:53;6.90;;;5.33;;
63217;SDS011;49314;48.278;16.378;2023-07-13T04:35:19;5.07;;;4.67;;
63217;SDS011;49314;48.278;16.378;2023-07-13T04:37:48;5.10;;;4.65;;
63217;SDS011;49314;48.278;16.378;2023-07-13T04:40:15;5.57;;;5.03;;
63217;SDS011;49314;48.278;16.378;2023-07-13T04:42:40;5.32;;;4.90;;
63217;SDS011;49314;48.278;16.378;2023-07-13T04:45:06;5.45;;;4.97;;
63217;SDS011;49314;48.278;16.378;2023-07-13T04:47:31;7.03;;;6.20;;
63217;SDS011;49314;48.278;16.378;2023-07-13T04:49:57;5.77;;;5.20;;
63217;SDS011;49314;48.278;16.378;2023-07-13T04:52:22;6.00;;;5.60;;
63217;SDS011;49314;48.278;16.378;2023-07-13T04:54:48;6.87;;;6.37;;
63217;SDS011;49314;48.278;16.378;2023-07-13T04:57:13;6.47;;;5.80;;
63217;SDS011;49314;48.278;16.378;2023-07-13T04:59:38;7.30;;;5.40;;
63217;SDS011;49314;48.278;16.378;2023-07-13T05:02:03;4.80;;;4.50;;
63217;SDS011;49314;48.278;16.378;2023-07-13T05:04:29;4.60;;;4.28;;
63217;SDS011;49314;48.278;16.378;2023-07-13T05:06:54;5.47;;;5.05;;
63217;SDS011;49314;48.278;16.378;2023-07-13T05:09:19;4.47;;;4.07;;
63217;SDS011;49314;48.278;16.378;2023-07-13T05:11:44;4.15;;;3.95;;
63217;SDS011;49314;48.278;16.378;2023-07-13T05:14:10;3.93;;;3.73;;
63217;SDS011;49314;48.278;16.378;2023-07-13T05:16:35;5.60;;;5.23;;
63217;SDS011;49314;48.278;16.378;2023-07-13T05:19:01;5.18;;;4.78;;
63217;SDS011;49314;48.278;16.378;2023-07-13T05:21:26;3.72;;;3.47;;
63217;SDS011;49314;48.278;16.378;2023-07-13T05:23:51;3.50;;;3.30;;
63217;SDS011;49314;48.278;16.378;2023-07-13T05:26:16;4.87;;;4.37;;
63217;SDS011;49314;48.278;16.378;2023-07-13T05:28:42;4.57;;;4.27;;
63217;SDS011;49314;48.278;16.378;2023-07-13T05:31:08;4.27;;;4.07;;
63217;SDS011;49314;48.278;16.378;2023-07-13T05:33:33;5.30;;;4.90;;
63217;SDS011;49314;48.278;16.378;2023-07-13T05:35:58;5.28;;;4.07;;
63217;SDS011;49314;48.278;16.378;2023-07-13T05:38:25;4.95;;;4.55;;
63217;SDS011;49314;48.278;16.378;2023-07-13T05:40:50;3.60;;;3.15;;
63217;SDS011;49314;48.278;16.378;2023-07-13T05:43:16;4.13;;;3.85;;
63217;SDS011;49314;48.278;16.378;2023-07-13T05:45:41;4.18;;;3.88;;
63217;SDS011;49314;48.278;16.378;2023-07-13T05:48:06;4.85;;;4.50;;
63217;SDS011;49314;48.278;16.378;2023-07-13T05:50:32;5.00;;;4.60;;
63217;SDS011;49314;48.278;16.378;2023-07-13T05:52:57;4.68;;;3.88;;
63217;SDS011;49314;48.278;16.378;2023-07-13T05:55:28;7.93;;;4.60;;
63217;SDS011;49314;48.278;16.378;2023-07-13T05:57:53;4.25;;;4.05;;
63217;SDS011;49314;48.278;16.378;2023-07-13T06:00:18;4.10;;;3.88;;
63217;SDS011;49314;48.278;16.378;2023-07-13T06:02:44;4.85;;;4.55;;
63217;SDS011;49314;48.278;16.378;2023-07-13T06:05:09;5.05;;;4.55;;
63217;SDS011;49314;48.278;16.378;2023-07-13T06:07:34;4.93;;;4.63;;
63217;SDS011;49314;48.278;16.378;2023-07-13T06:10:00;5.50;;;4.47;;
63217;SDS011;49314;48.278;16.378;2023-07-13T06:12:25;4.20;;;3.90;;
63217;SDS011;49314;48.278;16.378;2023-07-13T06:14:51;3.72;;;3.35;;
63217;SDS011;49314;48.278;16.378;2023-07-13T06:17:16;4.13;;;3.90;;
63217;SDS011;49314;48.278;16.378;2023-07-13T06:19:41;4.37;;;4.17;;
63217;SDS011;49314;48.278;16.378;2023-07-13T06:22:06;4.30;;;4.10;;
63217;SDS011;49314;48.278;16.378;2023-07-13T06:24:31;3.57;;;3.37;;
63217;SDS011;49314;48.278;16.378;2023-07-13T06:26:57;4.55;;;4.30;;
63217;SDS011;49314;48.278;16.378;2023-07-13T06:29:22;4.60;;;4.33;;
63217;SDS011;49314;48.278;16.378;2023-07-13T06:31:47;3.40;;;3.20;;
63217;SDS011;49314;48.278;16.378;2023-07-13T06:34:12;3.50;;;3.27;;
63217;SDS011;49314;48.278;16.378;2023-07-13T06:36:38;4.72;;;4.43;;
63217;SDS011;49314;48.278;16.378;2023-07-13T06:39:03;3.70;;;3.40;;
63217;SDS011;49314;48.278;16.378;2023-07-13T06:41:28;3.47;;;3.22;;
63217;SDS011;49314;48.278;16.378;2023-07-13T06:43:55;3.10;;;2.85;;
63217;SDS011;49314;48.278;16.378;2023-07-13T06:46:21;3.55;;;3.35;;
63217;SDS011;49314;48.278;16.378;2023-07-13T06:48:46;3.58;;;3.28;;
63217;SDS011;49314;48.278;16.378;2023-07-13T06:51:11;4.07;;;3.80;;
63217;SDS011;49314;48.278;16.378;2023-07-13T06:53:37;4.18;;;3.95;;
63217;SDS011;49314;48.278;16.378;2023-07-13T06:56:02;3.27;;;3.07;;
63217;SDS011;49314;48.278;16.378;2023-07-13T06:58:27;2.55;;;2.45;;
63217;SDS011;49314;48.278;16.378;2023-07-13T07:00:53;3.40;;;3.20;;
63217;SDS011;49314;48.278;16.378;2023-07-13T07:03:18;3.13;;;2.85;;
63217;SDS011;49314;48.278;16.378;2023-07-13T07:05:43;2.85;;;2.67;;
63217;SDS011;49314;48.278;16.378;2023-07-13T07:08:09;3.75;;;3.50;;
63217;SDS011;49314;48.278;16.378;2023-07-13T07:10:35;3.28;;;3.17;;
63217;SDS011;49314;48.278;16.378;2023-07-13T07:13:00;3.17;;;2.97;;
63217;SDS011;49314;48.278;16.378;2023-07-13T07:15:25;3.47;;;3.28;;
63217;SDS011;49314;48.278;16.378;2023-07-13T07:17:51;4.45;;;4.15;;
63217;SDS011;49314;48.278;16.378;2023-07-13T07:20:16;3.07;;;2.87;;
63217;SDS011;49314;48.278;16.378;2023-07-13T07:22:41;3.50;;;3.30;;
63217;SDS011;49314;48.278;16.378;2023-07-13T07:25:06;2.80;;;2.70;;
63217;SDS011;49314;48.278;16.378;2023-07-13T07:27:32;2.85;;;2.65;;
63217;SDS011;49314;48.278;16.378;2023-07-13T07:29:57;3.47;;;3.28;;
63217;SDS011;49314;48.278;16.378;2023-07-13T07:32:23;3.10;;;2.90;;
63217;SDS011;49314;48.278;16.378;2023-07-13T07:34:48;3.63;;;3.47;;
63217;SDS011;49314;48.278;16.378;2023-07-13T07:37:14;3.20;;;2.73;;
63217;SDS011;49314;48.278;16.378;2023-07-13T07:39:39;2.27;;;2.07;;
63217;SDS011;49314;48.278;16.378;2023-07-13T07:42:04;3.00;;;2.90;;
63217;SDS011;49314;48.278;16.378;2023-07-13T07:44:32;2.65;;;2.45;;
63217;SDS011;49314;48.278;16.378;2023-07-13T07:46:58;2.67;;;2.47;;
63217;SDS011;49314;48.278;16.378;2023-07-13T07:49:23;3.58;;;2.58;;
63217;SDS011;49314;48.278;16.378;2023-07-13T07:51:49;4.03;;;3.42;;
63217;SDS011;49314;48.278;16.378;2023-07-13T07:54:14;3.05;;;2.85;;
63217;SDS011;49314;48.278;16.378;2023-07-13T07:56:39;2.50;;;2.30;;
63217;SDS011;49314;48.278;16.378;2023-07-13T07:59:05;2.65;;;2.50;;
63217;SDS011;49314;48.278;16.378;2023-07-13T08:01:30;3.53;;;3.23;;
63217;SDS011;49314;48.278;16.378;2023-07-13T08:03:55;4.30;;;2.47;;
63217;SDS011;49314;48.278;16.378;2023-07-13T08:06:21;2.85;;;2.75;;
63217;SDS011;49314;48.278;16.378;2023-07-13T08:08:47;2.47;;;2.38;;
63217;SDS011;49314;48.278;16.378;2023-07-13T08:11:12;2.42;;;2.33;;
63217;SDS011;49314;48.278;16.378;2023-07-13T08:13:37;1.70;;;1.60;;
63217;SDS011;49314;48.278;16.378;2023-07-13T08:16:06;2.80;;;2.53;;
63217;SDS011;49314;48.278;16.378;2023-07-13T08:18:31;1.90;;;1.80;;
63217;SDS011;49314;48.278;16.378;2023-07-13T08:20:57;2.75;;;2.53;;
63217;SDS011;49314;48.278;16.378;2023-07-13T08:23:23;1.98;;;1.20;;
63217;SDS011;49314;48.278;16.378;2023-07-13T08:25:52;1.80;;;1.70;;
63217;SDS011;49314;48.278;16.378;2023-07-13T08:28:17;1.70;;;1.38;;
63217;SDS011;49314;48.278;16.378;2023-07-13T08:30:42;1.73;;;1.40;;
63217;SDS011;49314;48.278;16.378;2023-07-13T08:33:08;1.70;;;1.60;;
63217;SDS011;49314;48.278;16.378;2023-07-13T08:35:33;1.77;;;1.30;;
63217;SDS011;49314;48.278;16.378;2023-07-13T08:37:58;1.77;;;1.30;;
63217;SDS011;49314;48.278;16.378;2023-07-13T08:40:25;1.65;;;1.55;;
63217;SDS011;49314;48.278;16.378;2023-07-13T08:42:53;1.35;;;1.25;;
63217;SDS011;49314;48.278;16.378;2023-07-13T08:45:24;1.30;;;1.10;;
63217;SDS011;49314;48.278;16.378;2023-07-13T08:47:53;1.80;;;1.70;;
63217;SDS011;49314;48.278;16.378;2023-07-13T08:50:21;1.50;;;1.40;;
63217;SDS011;49314;48.278;16.378;2023-07-13T08:52:47;2.83;;;1.92;;
63217;SDS011;49314;48.278;16.378;2023-07-13T08:55:14;2.10;;;1.55;;
63217;SDS011;49314;48.278;16.378;2023-07-13T08:57:43;2.10;;;1.90;;
63217;SDS011;49314;48.278;16.378;2023-07-13T09:00:10;1.35;;;1.20;;
63217;SDS011;49314;48.278;16.378;2023-07-13T09:10:41;2.42;;;2.20;;
63217;SDS011;49314;48.278;16.378;2023-07-13T09:13:19;1.80;;;1.70;;
63217;SDS011;49314;48.278;16.378;2023-07-13T09:15:47;1.95;;;1.75;;
63217;SDS011;49314;48.278;16.378;2023-07-13T09:18:15;2.95;;;2.20;;
63217;SDS011;49314;48.278;16.378;2023-07-13T09:20:42;2.45;;;2.03;;
63217;SDS011;49314;48.278;16.378;2023-07-13T09:23:11;4.60;;;2.10;;
63217;SDS011;49314;48.278;16.378;2023-07-13T09:25:37;2.95;;;2.40;;
63217;SDS011;49314;48.278;16.378;2023-07-13T09:28:09;2.23;;;2.00;;
63217;SDS011;49314;48.278;16.378;2023-07-13T09:30:51;4.28;;;2.90;;
63217;SDS011;49314;48.278;16.378;2023-07-13T09:33:18;3.47;;;2.50;;
63217;SDS011;49314;48.278;16.378;2023-07-13T09:35:44;3.20;;;2.92;;
63217;SDS011;49314;48.278;16.378;2023-07-13T09:38:13;3.17;;;2.80;;
63217;SDS011;49314;48.278;16.378;2023-07-13T09:43:07;2.88;;;2.60;;
63217;SDS011;49314;48.278;16.378;2023-07-13T09:45:35;2.85;;;2.65;;
63217;SDS011;49314;48.278;16.378;2023-07-13T09:48:05;3.15;;;2.50;;
63217;SDS011;49314;48.278;16.378;2023-07-13T09:50:31;3.30;;;3.05;;
63217;SDS011;49314;48.278;16.378;2023-07-13T09:52:56;3.03;;;2.60;;
63217;SDS011;49314;48.278;16.378;2023-07-13T09:57:49;2.93;;;2.73;;
63217;SDS011;49314;48.278;16.378;2023-07-13T10:00:25;2.97;;;2.78;;
63217;SDS011;49314;48.278;16.378;2023-07-13T10:03:01;4.10;;;2.80;;
63217;SDS011;49314;48.278;16.378;2023-07-13T10:05:26;5.82;;;3.10;;
63217;SDS011;49314;48.278;16.378;2023-07-13T10:07:51;3.83;;;3.00;;
63217;SDS011;49314;48.278;16.378;2023-07-13T10:10:18;4.03;;;2.90;;
63217;SDS011;49314;48.278;16.378;2023-07-13T10:12:45;3.08;;;2.53;;
63217;SDS011;49314;48.278;16.378;2023-07-13T10:15:20;3.13;;;2.80;;
63217;SDS011;49314;48.278;16.378;2023-07-13T10:17:46;2.72;;;2.53;;
63217;SDS011;49314;48.278;16.378;2023-07-13T10:20:12;3.28;;;2.83;;
63217;SDS011;49314;48.278;16.378;2023-07-13T10:25:23;3.13;;;2.83;;
63217;SDS011;49314;48.278;16.378;2023-07-13T10:27:50;3.22;;;2.55;;
63217;SDS011;49314;48.278;16.378;2023-07-13T10:30:23;3.15;;;2.92;;
63217;SDS011;49314;48.278;16.378;2023-07-13T10:32:54;2.90;;;2.67;;
63217;SDS011;49314;48.278;16.378;2023-07-13T10:35:20;2.70;;;2.50;;
63217;SDS011;49314;48.278;16.378;2023-07-13T10:40:13;4.00;;;2.73;;
63217;SDS011;49314;48.278;16.378;2023-07-13T10:42:40;3.55;;;2.95;;
63217;SDS011;49314;48.278;16.378;2023-07-13T10:45:14;4.18;;;3.25;;
63217;SDS011;49314;48.278;16.378;2023-07-13T10:47:40;3.33;;;3.03;;
63217;SDS011;49314;48.278;16.378;2023-07-13T10:50:05;3.00;;;2.65;;
63217;SDS011;49314;48.278;16.378;2023-07-13T10:55:02;3.17;;;2.87;;
63217;SDS011;49314;48.278;16.378;2023-07-13T10:57:28;3.55;;;3.17;;
63217;SDS011;49314;48.278;16.378;2023-07-13T11:00:15;3.50;;;3.20;;
63217;SDS011;49314;48.278;16.378;2023-07-13T11:02:39;3.58;;;3.05;;
63217;SDS011;49314;48.278;16.378;2023-07-13T11:05:14;3.33;;;3.03;;
63217;SDS011;49314;48.278;16.378;2023-07-13T11:07:52;4.68;;;3.88;;
63217;SDS011;49314;48.278;16.378;2023-07-13T11:11:01;3.08;;;2.83;;
63217;SDS011;49314;48.278;16.378;2023-07-13T11:13:29;3.67;;;2.85;;
63217;SDS011;49314;48.278;16.378;2023-07-13T11:15:52;3.08;;;2.88;;
63217;SDS011;49314;48.278;16.378;2023-07-13T11:18:22;3.00;;;2.80;;
63217;SDS011;49314;48.278;16.378;2023-07-13T11:20:48;3.30;;;3.00;;
63217;SDS011;49314;48.278;16.378;2023-07-13T11:25:41;3.72;;;3.38;;
63217;SDS011;49314;48.278;16.378;2023-07-13T11:28:12;4.60;;;2.97;;
63217;SDS011;49314;48.278;16.378;2023-07-13T11:30:40;3.63;;;2.95;;
63217;SDS011;49314;48.278;16.378;2023-07-13T11:36:02;3.42;;;3.00;;
63217;SDS011;49314;48.278;16.378;2023-07-13T11:41:16;3.58;;;3.13;;
63217;SDS011;49314;48.278;16.378;2023-07-13T11:43:42;4.55;;;3.17;;
63217;SDS011;49314;48.278;16.378;2023-07-13T11:46:23;6.72;;;2.65;;
63217;SDS011;49314;48.278;16.378;2023-07-13T11:48:49;2.67;;;2.47;;
63217;SDS011;49314;48.278;16.378;2023-07-13T11:51:29;2.88;;;2.50;;
63217;SDS011;49314;48.278;16.378;2023-07-13T11:53:55;2.55;;;2.35;;
63217;SDS011;49314;48.278;16.378;2023-07-13T11:56:22;2.72;;;2.15;;
63217;SDS011;49314;48.278;16.378;2023-07-13T11:58:48;4.80;;;2.80;;
63217;SDS011;49314;48.278;16.378;2023-07-13T12:01:18;2.80;;;2.08;;
63217;SDS011;49314;48.278;16.378;2023-07-13T12:03:45;2.50;;;2.30;;
63217;SDS011;49314;48.278;16.378;2023-07-13T12:06:25;2.70;;;2.20;;
63217;SDS011;49314;48.278;16.378;2023-07-13T12:08:52;2.40;;;2.20;;
63217;SDS011;49314;48.278;16.378;2023-07-13T12:11:20;3.35;;;2.78;;
63217;SDS011;49314;48.278;16.378;2023-07-13T12:13:47;4.60;;;2.85;;
63217;SDS011;49314;48.278;16.378;2023-07-13T12:16:17;2.72;;;2.47;;
63217;SDS011;49314;48.278;16.378;2023-07-13T12:18:45;2.35;;;2.15;;
63217;SDS011;49314;48.278;16.378;2023-07-13T12:21:12;4.22;;;2.58;;
63217;SDS011;49314;48.278;16.378;2023-07-13T12:23:38;2.53;;;2.33;;
63217;SDS011;49314;48.278;16.378;2023-07-13T12:26:04;3.10;;;2.37;;
63217;SDS011;49314;48.278;16.378;2023-07-13T12:28:34;4.25;;;2.95;;
63217;SDS011;49314;48.278;16.378;2023-07-13T12:31:01;5.43;;;2.83;;
63217;SDS011;49314;48.278;16.378;2023-07-13T12:33:29;3.00;;;2.17;;
63217;SDS011;49314;48.278;16.378;2023-07-13T12:35:56;2.47;;;2.28;;
63217;SDS011;49314;48.278;16.378;2023-07-13T12:38:24;4.85;;;2.33;;
63217;SDS011;49314;48.278;16.378;2023-07-13T12:40:49;3.38;;;2.33;;
63217;SDS011;49314;48.278;16.378;2023-07-13T12:43:16;2.97;;;2.63;;
63217;SDS011;49314;48.278;16.378;2023-07-13T12:48:25;2.53;;;2.25;;
63217;SDS011;49314;48.278;16.378;2023-07-13T12:50:51;2.33;;;2.13;;
63217;SDS011;49314;48.278;16.378;2023-07-13T12:53:22;2.03;;;1.88;;
63217;SDS011;49314;48.278;16.378;2023-07-13T12:55:54;6.25;;;2.20;;
63217;SDS011;49314;48.278;16.378;2023-07-13T12:58:31;3.15;;;2.28;;
63217;SDS011;49314;48.278;16.378;2023-07-13T13:00:58;2.72;;;2.17;;
63217;SDS011;49314;48.278;16.378;2023-07-13T13:03:31;2.60;;;2.38;;
63217;SDS011;49314;48.278;16.378;2023-07-13T13:06:01;2.60;;;2.17;;
63217;SDS011;49314;48.278;16.378;2023-07-13T13:08:28;2.80;;;2.35;;
63217;SDS011;49314;48.278;16.378;2023-07-13T13:10:53;3.90;;;2.08;;
63217;SDS011;49314;48.278;16.378;2023-07-13T13:13:19;2.10;;;2.00;;
63217;SDS011;49314;48.278;16.378;2023-07-13T13:15:44;2.40;;;2.20;;
63217;SDS011;49314;48.278;16.378;2023-07-13T13:18:19;2.80;;;2.60;;
63217;SDS011;49314;48.278;16.378;2023-07-13T13:20:45;2.78;;;2.05;;
63217;SDS011;49314;48.278;16.378;2023-07-13T13:23:12;4.38;;;2.05;;
63217;SDS011;49314;48.278;16.378;2023-07-13T13:25:38;3.45;;;2.67;;
63217;SDS011;49314;48.278;16.378;2023-07-13T13:28:03;4.07;;;2.50;;
63217;SDS011;49314;48.278;16.378;2023-07-13T13:30:28;2.87;;;1.80;;
63217;SDS011;49314;48.278;16.378;2023-07-13T13:32:54;3.63;;;2.23;;
63217;SDS011;49314;48.278;16.378;2023-07-13T13:35:19;3.20;;;2.80;;
63217;SDS011;49314;48.278;16.378;2023-07-13T13:37:46;3.80;;;2.72;;
63217;SDS011;49314;48.278;16.378;2023-07-13T13:40:15;5.00;;;2.78;;
63217;SDS011;49314;48.278;16.378;2023-07-13T13:42:41;4.43;;;2.30;;
63217;SDS011;49314;48.278;16.378;2023-07-13T13:45:07;2.33;;;2.20;;
63217;SDS011;49314;48.278;16.378;2023-07-13T13:47:34;4.55;;;2.63;;
63217;SDS011;49314;48.278;16.378;2023-07-13T13:50:01;2.95;;;2.47;;
63217;SDS011;49314;48.278;16.378;2023-07-13T13:52:26;2.85;;;2.08;;
63217;SDS011;49314;48.278;16.378;2023-07-13T13:54:51;2.43;;;2.23;;
63217;SDS011;49314;48.278;16.378;2023-07-13T13:57:21;3.25;;;2.95;;
63217;SDS011;49314;48.278;16.378;2023-07-13T13:59:48;2.75;;;2.55;;
63217;SDS011;49314;48.278;16.378;2023-07-13T14:02:31;4.57;;;2.33;;
63217;SDS011;49314;48.278;16.378;2023-07-13T14:04:58;3.10;;;2.80;;
63217;SDS011;49314;48.278;16.378;2023-07-13T14:07:24;3.17;;;2.35;;
63217;SDS011;49314;48.278;16.378;2023-07-13T14:09:49;3.67;;;2.60;;
63217;SDS011;49314;48.278;16.378;2023-07-13T14:12:15;3.42;;;2.83;;
63217;SDS011;49314;48.278;16.378;2023-07-13T14:14:40;4.22;;;2.30;;
63217;SDS011;49314;48.278;16.378;2023-07-13T14:17:10;3.83;;;2.90;;
63217;SDS011;49314;48.278;16.378;2023-07-13T14:19:41;3.72;;;2.55;;
63217;SDS011;49314;48.278;16.378;2023-07-13T14:22:06;2.50;;;2.30;;
63217;SDS011;49314;48.278;16.378;2023-07-13T14:24:32;3.90;;;2.77;;
63217;SDS011;49314;48.278;16.378;2023-07-13T14:26:57;2.77;;;2.57;;
63217;SDS011;49314;48.278;16.378;2023-07-13T14:29:22;3.47;;;2.53;;
63217;SDS011;49314;48.278;16.378;2023-07-13T14:31:47;10.47;;;3.00;;
63217;SDS011;49314;48.278;16.378;2023-07-13T14:34:12;3.17;;;2.87;;
63217;SDS011;49314;48.278;16.378;2023-07-13T14:36:43;4.03;;;2.70;;
63217;SDS011;49314;48.278;16.378;2023-07-13T14:39:14;4.60;;;2.42;;
63217;SDS011;49314;48.278;16.378;2023-07-13T14:41:39;3.58;;;2.70;;
63217;SDS011;49314;48.278;16.378;2023-07-13T14:44:15;3.40;;;2.40;;
63217;SDS011;49314;48.278;16.378;2023-07-13T14:46:40;4.95;;;2.83;;
63217;SDS011;49314;48.278;16.378;2023-07-13T14:49:51;2.78;;;2.42;;
63217;SDS011;49314;48.278;16.378;2023-07-13T14:51:52;3.55;;;2.90;;
63217;SDS011;49314;48.278;16.378;2023-07-13T14:54:17;4.63;;;2.57;;
63217;SDS011;49314;48.278;16.378;2023-07-13T14:56:42;3.22;;;2.45;;
63217;SDS011;49314;48.278;16.378;2023-07-13T14:59:08;2.30;;;1.90;;
63217;SDS011;49314;48.278;16.378;2023-07-13T15:01:34;3.33;;;3.03;;